Time;durP1;ratioP1;P1;durP2;ratioP2;P2;SDS_P1;SDS_P2;PMS_P1;PMS_P2;Temp;Humidity;BMP_temperature;BMP_pressure;BME280_temperature;BME280_humidity;BME280_pressure;Samples;Min_cycle;Max_cycle;Signal;HPM_P1;HPM_P2
2019/04/23 00:02:58;;;;;;;9.1;6.7;;;;;;;16.13;42.23242;946.6592;;;;
2019/04/23 00:05:23;;;;;;;14.3;6.8;;;;;;;16.14;42.22266;946.6193;;;;
2019/04/23 00:07:48;;;;;;;9;6.1;;;;;;;16.11;42.50098;946.6191;;;;
2019/04/23 00:10:15;;;;;;;9.5;6.2;;;;;;;16.1;42.21777;946.6434;;;;
2019/04/23 00:12:41;;;;;;;9.9;6.6;;;;;;;16.1;42.39355;946.6563;;;;
2019/04/23 00:15:19;;;;;;;13.4;6.6;;;;;;;16.07;42.57813;946.6133;;;;
2019/04/23 00:17:31;;;;;;;10.7;6.4;;;;;;;16.08;42.48535;946.5812;;;;
2019/04/23 00:20:00;;;;;;;13.6;6.8;;;;;;;16.07;42.39063;946.6431;;;;
2019/04/23 00:22:31;;;;;;;10.5;6.9;;;;;;;16.08;42.52051;946.5812;;;;
2019/04/23 00:27:17;;;;;;;8.2;6.2;;;;;;;16.06;42.72949;946.5293;;;;
2019/04/23 00:29:42;;;;;;;8.6;6.6;;;;;;;15.94;42.97559;946.4754;;;;
2019/04/23 00:32:09;;;;;;;7.7;6.7;;;;;;;15.95;42.85938;946.4781;;;;
2019/04/23 00:34:33;;;;;;;9.7;7;;;;;;;15.87;43.16895;946.3395;;;;
2019/04/23 00:37:02;;;;;;;11.6;6.6;;;;;;;15.87;43.22656;946.3059;;;;
2019/04/23 00:39:25;;;;;;;10.2;6.7;;;;;;;15.77;43.55566;946.3347;;;;
2019/04/23 00:41:50;;;;;;;10.2;6.5;;;;;;;15.75;43.58984;946.2777;;;;
2019/04/23 00:44:15;;;;;;;7.8;6.2;;;;;;;15.77;43.60254;946.1838;;;;
2019/04/23 00:46:40;;;;;;;10.9;7.1;;;;;;;15.8;43.44238;946.1532;;;;
2019/04/23 00:49:06;;;;;;;10.7;6.6;;;;;;;15.82;43.33789;946.1892;;;;
2019/04/23 00:51:31;;;;;;;11.5;6.6;;;;;;;15.86;43.41309;946.2;;;;
2019/04/23 00:53:56;;;;;;;10.6;6.9;;;;;;;15.81;43.44238;946.0797;;;;
2019/04/23 00:56:21;;;;;;;11.6;7;;;;;;;15.74;43.81055;946.0467;;;;
2019/04/23 00:58:46;;;;;;;12.1;7;;;;;;;15.7;43.7832;946.0062;;;;
2019/04/23 01:01:11;;;;;;;10.4;7;;;;;;;15.7;43.70117;946.0578;;;;
2019/04/23 01:03:41;;;;;;;11.7;7;;;;;;;15.71;43.70215;946.0605;;;;
2019/04/23 01:06:06;;;;;;;9.5;6.7;;;;;;;15.69;44.05176;946.0591;;;;
2019/04/23 01:08:31;;;;;;;9.3;7.1;;;;;;;15.67;43.69727;946.0591;;;;
2019/04/23 01:10:56;;;;;;;12.1;7;;;;;;;15.63;44.0332;946.1038;;;;
2019/04/23 01:13:23;;;;;;;9.5;6.7;;;;;;;15.57;44.09863;946.0441;;;;
2019/04/23 01:15:48;;;;;;;10.3;6.4;;;;;;;15.54;44.23633;946.0873;;;;
2019/04/23 01:18:18;;;;;;;9.6;6.9;;;;;;;15.48;44.6748;945.9976;;;;
2019/04/23 01:20:42;;;;;;;11.9;6.8;;;;;;;15.46;44.59082;946.0785;;;;
2019/04/23 01:23:09;;;;;;;11.2;6.7;;;;;;;15.37;44.83887;946.0881;;;;
2019/04/23 01:25:37;;;;;;;13.2;6.9;;;;;;;15.34;44.68262;946.0983;;;;
2019/04/23 01:27:59;;;;;;;11.4;7;;;;;;;15.29;45.15723;946.0718;;;;
2019/04/23 01:30:19;;;;;;;9.7;7.1;;;;;;;15.33;45.12695;946.0092;;;;
2019/04/23 01:32:44;;;;;;;11.5;7.3;;;;;;;15.36;44.7666;946.0725;;;;
2019/04/23 01:35:09;;;;;;;14.5;7.3;;;;;;;15.38;44.80371;946.0959;;;;
2019/04/23 01:37:34;;;;;;;12;7.4;;;;;;;15.36;44.89551;946.035;;;;
2019/04/23 01:39:59;;;;;;;13.5;7.5;;;;;;;15.34;45.01074;945.9603;;;;
2019/04/23 01:42:25;;;;;;;10.2;7;;;;;;;15.32;44.89063;945.9084;;;;
2019/04/23 01:44:52;;;;;;;9.5;6.9;;;;;;;15.29;45.03906;945.9261;;;;
2019/04/23 01:47:21;;;;;;;10.4;7.4;;;;;;;15.26;45.13086;945.8781;;;;
2019/04/23 01:49:42;;;;;;;11.1;7.4;;;;;;;15.19;45.32227;945.8427;;;;
2019/04/23 01:52:07;;;;;;;11.2;7.3;;;;;;;15.16;45.53027;945.8256;;;;
2019/04/23 01:54:32;;;;;;;13.2;7.2;;;;;;;15.17;45.47168;945.7947;;;;
2019/04/23 01:56:57;;;;;;;11.3;7;;;;;;;15.15;45.50488;945.7932;;;;
2019/04/23 01:59:23;;;;;;;12.3;6.9;;;;;;;15.1;45.58203;945.7967;;;;
2019/04/23 02:01:48;;;;;;;13.2;7.1;;;;;;;15.08;45.73145;945.7576;;;;
2019/04/23 02:04:14;;;;;;;13.6;7;;;;;;;15.07;45.95215;945.7678;;;;
2019/04/23 02:06:39;;;;;;;11.4;7.7;;;;;;;15.01;46.00488;945.7543;;;;
2019/04/23 02:09:06;;;;;;;8;7.1;;;;;;;15.03;45.99512;945.7352;;;;
2019/04/23 02:11:30;;;;;;;9.9;7;;;;;;;15.02;45.99316;945.7582;;;;
2019/04/23 02:13:55;;;;;;;12.3;7.5;;;;;;;15.01;46.08691;945.7156;;;;
2019/04/23 02:16:20;;;;;;;10.9;7.5;;;;;;;14.94;46.34863;945.6635;;;;
2019/04/23 02:18:49;;;;;;;11.2;7.3;;;;;;;14.88;46.64551;945.6602;;;;
2019/04/23 02:21:19;;;;;;;10.4;7.7;;;;;;;14.86;46.74902;945.6459;;;;
2019/04/23 02:23:42;;;;;;;12.1;7.5;;;;;;;14.87;46.49316;945.5842;;;;
2019/04/23 02:26:05;;;;;;;11.7;7.4;;;;;;;14.8;46.75488;945.6077;;;;
2019/04/23 02:28:30;;;;;;;12.9;7.3;;;;;;;14.83;46.60547;945.5952;;;;
2019/04/23 02:30:56;;;;;;;11.4;7.6;;;;;;;14.82;46.55859;945.5229;;;;
2019/04/23 02:33:21;;;;;;;12.4;8;;;;;;;14.79;46.83398;945.5198;;;;
2019/04/23 02:35:46;;;;;;;13;7.6;;;;;;;14.76;46.9707;945.5506;;;;
2019/04/23 02:38:11;;;;;;;13.1;7.6;;;;;;;14.7;47.23438;945.555;;;;
2019/04/23 02:40:36;;;;;;;11.5;7.3;;;;;;;14.67;47.21973;945.5378;;;;
2019/04/23 02:43:01;;;;;;;11.9;7.3;;;;;;;14.63;47.22656;945.459;;;;
2019/04/23 02:45:26;;;;;;;11.4;7.3;;;;;;;14.62;47.2832;945.3958;;;;
2019/04/23 02:47:52;;;;;;;12.9;7.4;;;;;;;14.58;47.51367;945.372;;;;
2019/04/23 02:50:18;;;;;;;8.8;7.2;;;;;;;14.53;47.6123;945.3755;;;;
2019/04/23 02:52:44;;;;;;;9.1;7.2;;;;;;;14.51;47.72754;945.2463;;;;
2019/04/23 02:55:11;;;;;;;11.7;8;;;;;;;14.46;47.95508;945.3267;;;;
2019/04/23 02:57:36;;;;;;;12.9;7.5;;;;;;;14.41;48.03223;945.3083;;;;
2019/04/23 03:00:03;;;;;;;11.6;7.6;;;;;;;14.42;48.21875;945.338;;;;
2019/04/23 03:02:29;;;;;;;10;7.6;;;;;;;14.38;48.34277;945.3127;;;;
2019/04/23 03:04:53;;;;;;;9.9;7.1;;;;;;;14.36;48.32813;945.2608;;;;
2019/04/23 03:07:21;;;;;;;10.2;7.4;;;;;;;14.32;48.52246;945.2628;;;;
2019/04/23 03:09:46;;;;;;;13.7;7.7;;;;;;;14.17;48.92578;945.2609;;;;
2019/04/23 03:12:12;;;;;;;11.5;7.4;;;;;;;14.16;48.84473;945.3175;;;;
2019/04/23 03:17:35;;;;;;;11.6;7.8;;;;;;;14.17;48.94922;945.1877;;;;
2019/04/23 03:19:34;;;;;;;11.5;8;;;;;;;14.11;49.1543;945.1058;;;;
2019/04/23 03:21:58;;;;;;;12;7.8;;;;;;;13.96;49.82422;945.0833;;;;
2019/04/23 03:24:58;;;;;;;9;7.2;;;;;;;13.9;49.93457;945.1171;;;;
2019/04/23 03:26:42;;;;;;;11.9;7.6;;;;;;;13.9;49.96973;945.0656;;;;
2019/04/23 03:29:08;;;;;;;11.5;7.6;;;;;;;13.95;49.8125;945.0022;;;;
2019/04/23 03:31:33;;;;;;;12.6;7.5;;;;;;;14.01;49.8877;945.1313;;;;
2019/04/23 03:33:58;;;;;;;10.7;7.5;;;;;;;14.03;49.61035;945.1793;;;;
2019/04/23 03:36:23;;;;;;;12.8;7.4;;;;;;;14.02;49.70215;945.1379;;;;
2019/04/23 03:38:48;;;;;;;12;7.5;;;;;;;14.04;49.68164;945.1138;;;;
2019/04/23 03:41:14;;;;;;;12.8;8.6;;;;;;;13.99;49.8623;945.1247;;;;
2019/04/23 03:43:39;;;;;;;12.8;8.1;;;;;;;13.97;49.96484;945.1539;;;;
2019/04/23 03:46:10;;;;;;;10.6;7.5;;;;;;;13.95;50.02148;945.1912;;;;
2019/04/23 03:48:34;;;;;;;10.8;7.7;;;;;;;13.9;50.22656;945.22;;;;
2019/04/23 03:51:01;;;;;;;10.1;7.4;;;;;;;13.85;50.38281;945.1805;;;;
2019/04/23 03:53:25;;;;;;;10.4;7.8;;;;;;;13.82;50.46191;945.2073;;;;
2019/04/23 03:55:50;;;;;;;11.8;7.8;;;;;;;13.8;50.54004;945.2108;;;;
2019/04/23 03:58:15;;;;;;;10.6;8.1;;;;;;;13.74;50.78906;945.1171;;;;
2019/04/23 04:02:26;;;;;;;10.2;8;;;;;;;13.71;51.03027;945.0963;;;;
2019/04/23 04:04:52;;;;;;;12.7;7.5;;;;;;;13.7;51.02832;945.1192;;;;
2019/04/23 04:07:19;;;;;;;11.5;7.7;;;;;;;13.67;51.08398;945.0892;;;;
2019/04/23 04:09:44;;;;;;;9.8;8;;;;;;;13.63;51.23145;945.1375;;;;
2019/04/23 04:12:09;;;;;;;13.5;8;;;;;;;13.62;51.43848;945.0844;;;;
2019/04/23 04:14:34;;;;;;;14.4;8.2;;;;;;;13.57;51.57324;945.1044;;;;
2019/04/23 04:16:59;;;;;;;10.1;7.9;;;;;;;13.54;51.74512;945.1515;;;;
2019/04/23 04:19:26;;;;;;;11.8;8.1;;;;;;;13.51;51.85742;945.174;;;;
2019/04/23 04:21:51;;;;;;;11.3;7.8;;;;;;;13.49;51.9707;945.1945;;;;
2019/04/23 04:24:16;;;;;;;11.5;8;;;;;;;13.42;52.24219;945.1663;;;;
2019/04/23 04:28:24;;;;;;;10.7;8.2;;;;;;;13.4;52.33398;945.0875;;;;
2019/04/23 04:30:49;;;;;;;107.8;84.8;;;;;;;13.36;52.70117;945.1025;;;;
2019/04/23 04:33:14;;;;;;;53;39.1;;;;;;;13.37;52.75;945.1437;;;;
2019/04/23 04:35:41;;;;;;;12.3;8.1;;;;;;;13.33;52.84863;945.0595;;;;
2019/04/23 04:38:04;;;;;;;11.3;7.8;;;;;;;13.32;52.90625;945.0657;;;;
2019/04/23 04:40:33;;;;;;;13.9;8.8;;;;;;;13.33;53.04785;945.0762;;;;
2019/04/23 04:42:59;;;;;;;10.8;8;;;;;;;13.31;53.09277;945.0836;;;;
2019/04/23 04:45:27;;;;;;;11.6;8.7;;;;;;;13.32;53.06934;945.1132;;;;
2019/04/23 04:47:52;;;;;;;11.4;8.1;;;;;;;13.3;53.11328;945.1669;;;;
2019/04/23 04:50:17;;;;;;;12.9;8.3;;;;;;;13.33;53.15137;945.1456;;;;
2019/04/23 04:52:42;;;;;;;9.2;8.2;;;;;;;13.32;53.05762;945.1814;;;;
2019/04/23 04:55:07;;;;;;;85.9;64.4;;;;;;;13.25;54.1084;945.0801;;;;
2019/04/23 04:57:35;;;;;;;28.3;18.9;;;;;;;13.36;53.64551;945.1231;;;;
2019/04/23 04:59:58;;;;;;;13.1;8.2;;;;;;;13.47;52.92383;945.0733;;;;
2019/04/23 05:02:24;;;;;;;13.4;9.3;;;;;;;13.47;52.91309;945.0297;;;;
2019/04/23 05:04:50;;;;;;;11.7;8.2;;;;;;;13.47;52.88965;945.0939;;;;
2019/04/23 05:07:16;;;;;;;12;8.6;;;;;;;13.47;52.95801;945.0861;;;;
2019/04/23 05:09:40;;;;;;;14.5;8.7;;;;;;;13.45;53.16699;945.0795;;;;
2019/04/23 05:12:05;;;;;;;11.6;8.8;;;;;;;13.4;53.49805;945.1093;;;;
2019/04/23 05:14:30;;;;;;;13.3;8.6;;;;;;;13.4;53.40527;945.0657;;;;
2019/04/23 05:17:40;;;;;;;12.3;8.4;;;;;;;13.37;53.57617;945.1259;;;;
2019/04/23 05:19:21;;;;;;;9.4;8.4;;;;;;;13.35;53.86426;945.0869;;;;
2019/04/23 05:21:50;;;;;;;13;8.5;;;;;;;13.3;54.00977;945.0295;;;;
2019/04/23 05:24:15;;;;;;;11.7;8.6;;;;;;;13.26;54.40039;945.0327;;;;
2019/04/23 05:26:42;;;;;;;16.5;9.3;;;;;;;13.27;53.99512;945.1033;;;;
2019/04/23 05:29:18;;;;;;;14.4;8.7;;;;;;;13.24;54.29395;945.1763;;;;
2019/04/23 05:31:44;;;;;;;13.7;9.2;;;;;;;13.33;54.24609;945.1071;;;;
2019/04/23 05:34:09;;;;;;;13.5;8.3;;;;;;;13.36;54.15723;945.0974;;;;
2019/04/23 05:36:34;;;;;;;11.3;8.8;;;;;;;13.41;54.10449;945.0992;;;;
2019/04/23 05:39:00;;;;;;;12.6;8.5;;;;;;;13.37;54.20508;945.0706;;;;
2019/04/23 05:41:25;;;;;;;11.6;9.2;;;;;;;13.39;54.06738;945.1144;;;;
2019/04/23 05:43:51;;;;;;;14.2;8.8;;;;;;;13.41;54.18652;945.116;;;;
2019/04/23 05:46:16;;;;;;;12.6;8.7;;;;;;;13.46;54.2041;945.108;;;;
2019/04/23 05:48:41;;;;;;;15.1;9.1;;;;;;;13.45;54.22656;945.1141;;;;
2019/04/23 05:51:11;;;;;;;12.2;8.9;;;;;;;13.44;54.23633;945.1203;;;;
2019/04/23 05:53:37;;;;;;;13;8.8;;;;;;;13.49;54.38184;945.1816;;;;
2019/04/23 05:56:01;;;;;;;12.6;9.2;;;;;;;13.56;54.29785;945.1223;;;;
2019/04/23 05:58:26;;;;;;;14.9;8.8;;;;;;;13.64;54.12207;945.1916;;;;
2019/04/23 06:00:54;;;;;;;10.2;8.7;;;;;;;13.64;53.63281;945.1838;;;;
2019/04/23 06:03:18;;;;;;;10.4;9;;;;;;;13.6;53.86133;945.1898;;;;
2019/04/23 06:05:43;;;;;;;11.9;9.1;;;;;;;13.63;53.93457;945.2106;;;;
2019/04/23 06:08:08;;;;;;;15.6;9.9;;;;;;;13.63;53.82813;945.2286;;;;
2019/04/23 06:10:33;;;;;;;14.9;9.5;;;;;;;13.65;53.86621;945.2161;;;;
2019/04/23 06:13:00;;;;;;;16.4;9.9;;;;;;;13.74;54.12207;945.2842;;;;
2019/04/23 06:15:25;;;;;;;14.5;9.5;;;;;;;13.8;53.79199;945.2969;;;;
2019/04/23 06:17:54;;;;;;;13.2;9.2;;;;;;;13.87;53.87012;945.2515;;;;
2019/04/23 06:20:18;;;;;;;11.9;8.8;;;;;;;13.87;54.26855;945.2375;;;;
2019/04/23 06:22:54;;;;;;;15.8;8.3;;;;;;;13.96;55.04785;945.2247;;;;
2019/04/23 06:25:21;;;;;;;13.6;9.6;;;;;;;14.11;54.21582;945.1713;;;;
2019/04/23 06:27:47;;;;;;;11.4;9;;;;;;;14.18;53.59375;945.1647;;;;
2019/04/23 06:30:13;;;;;;;12.7;9.4;;;;;;;14.3;53.65527;945.2447;;;;
2019/04/23 06:32:38;;;;;;;15.4;9.6;;;;;;;14.37;53.96777;945.2932;;;;
2019/04/23 06:35:03;;;;;;;14.1;8.9;;;;;;;14.46;52.99805;945.2623;;;;
2019/04/23 06:37:32;;;;;;;15.6;9.2;;;;;;;14.52;53.15723;945.3173;;;;
2019/04/23 06:39:57;;;;;;;13;8.9;;;;;;;14.61;52.70117;945.2475;;;;
2019/04/23 06:42:33;;;;;;;12.5;9;;;;;;;14.6;52.58203;945.3092;;;;
2019/04/23 06:44:50;;;;;;;13.5;8.8;;;;;;;14.61;52.70117;945.299;;;;
2019/04/23 06:47:15;;;;;;;13.5;9;;;;;;;14.69;52.75781;945.2264;;;;
2019/04/23 06:49:40;;;;;;;11.7;8.6;;;;;;;14.76;52.37988;945.2068;;;;
2019/04/23 06:52:06;;;;;;;11.2;8.7;;;;;;;14.85;51.69043;945.231;;;;
2019/04/23 06:54:30;;;;;;;15.1;8.3;;;;;;;14.92;53.06641;945.1336;;;;
2019/04/23 06:56:56;;;;;;;12.7;9.1;;;;;;;15.01;51.87305;945.235;;;;
2019/04/23 06:59:20;;;;;;;15.4;9;;;;;;;15.13;51.27832;945.2465;;;;
2019/04/23 07:01:50;;;;;;;13.2;9;;;;;;;15.26;51.74902;945.1962;;;;
2019/04/23 07:04:15;;;;;;;12.1;8.6;;;;;;;15.38;51.2041;945.2489;;;;
2019/04/23 07:06:40;;;;;;;11.6;8.6;;;;;;;15.47;51.0957;945.2611;;;;
2019/04/23 07:09:06;;;;;;;12.9;8.3;;;;;;;15.55;50.5918;945.243;;;;
2019/04/23 07:11:31;;;;;;;10.9;8.7;;;;;;;15.64;49.93457;945.3017;;;;
2019/04/23 07:13:56;;;;;;;13.3;9.1;;;;;;;15.72;50.23535;945.3279;;;;
2019/04/23 07:16:21;;;;;;;14.6;9.1;;;;;;;15.7;50.375;945.3136;;;;
2019/04/23 07:18:48;;;;;;;12.6;8.6;;;;;;;15.78;49.64648;945.2706;;;;
2019/04/23 07:21:13;;;;;;;13.4;8.3;;;;;;;15.89;50.55957;945.3049;;;;
2019/04/23 07:23:39;;;;;;;14.1;8.9;;;;;;;15.89;49.01367;945.2919;;;;
2019/04/23 07:26:03;;;;;;;12.2;9;;;;;;;16.06;49.19629;945.2386;;;;
2019/04/23 07:28:29;;;;;;;13.9;9.2;;;;;;;16.15;50.02832;945.2278;;;;
2019/04/23 07:30:54;;;;;;;13.3;8.9;;;;;;;16.24;48.72461;945.1831;;;;
2019/04/23 07:33:18;;;;;;;14.5;8.8;;;;;;;16.35;47.91602;945.2031;;;;
2019/04/23 07:35:44;;;;;;;12.2;8.5;;;;;;;16.43;48.51074;945.2123;;;;
2019/04/23 07:38:53;;;;;;;12.1;8.5;;;;;;;16.39;48.94141;945.2004;;;;
2019/04/23 07:40:49;;;;;;;10.6;8.7;;;;;;;16.47;49.20801;945.2178;;;;
2019/04/23 07:46:27;;;;;;;14.7;8.9;;;;;;;16.7;48.03711;945.2449;;;;
2019/04/23 07:47:56;;;;;;;12.2;8.6;;;;;;;16.78;48.10547;945.2308;;;;
2019/04/23 07:50:18;;;;;;;13.7;8.7;;;;;;;16.92;47.94336;945.1486;;;;
2019/04/23 07:52:46;;;;;;;15.5;9.4;;;;;;;17.01;47.61328;945.2018;;;;
2019/04/23 07:55:11;;;;;;;14.6;8.4;;;;;;;17.11;46.79102;945.18;;;;
2019/04/23 07:57:39;;;;;;;15.1;8.9;;;;;;;17.22;47.69434;945.2307;;;;
2019/04/23 08:00:03;;;;;;;16.8;8.4;;;;;;;17.37;46.08984;945.2063;;;;
2019/04/23 08:02:31;;;;;;;10.3;7.9;;;;;;;17.45;45.81445;945.1584;;;;
2019/04/23 08:05:00;;;;;;;12.2;8.4;;;;;;;17.6;45.34961;945.0719;;;;
2019/04/23 08:07:25;;;;;;;14.3;7.9;;;;;;;17.69;44.91113;945.1046;;;;
2019/04/23 08:09:52;;;;;;;11.7;7.6;;;;;;;17.84;45.04395;945.1394;;;;
2019/04/23 08:12:34;;;;;;;10.4;7.5;;;;;;;17.97;46.48145;945.0953;;;;
2019/04/23 08:15:04;;;;;;;10.9;7.5;;;;;;;18.1;44.60059;945.1677;;;;
2019/04/23 08:17:32;;;;;;;11.5;8.2;;;;;;;18.22;45.83691;945.1169;;;;
2019/04/23 08:19:57;;;;;;;12.8;8.2;;;;;;;18.37;43.52051;945.1512;;;;
2019/04/23 08:22:43;;;;;;;11.2;7.7;;;;;;;18.44;43.85645;945.1395;;;;
2019/04/23 08:27:46;;;;;;;13.4;7.8;;;;;;;18.61;43.94531;945.1663;;;;
2019/04/23 08:30:12;;;;;;;13.8;7.9;;;;;;;18.75;42.93262;945.1683;;;;
2019/04/23 08:32:38;;;;;;;12.5;7.7;;;;;;;18.81;41.97266;945.1174;;;;
2019/04/23 08:35:06;;;;;;;12.1;7.8;;;;;;;18.9;42.37012;945.2196;;;;
2019/04/23 08:37:31;;;;;;;16.2;7.5;;;;;;;18.98;42.68359;945.2101;;;;
2019/04/23 08:39:56;;;;;;;10.4;7.6;;;;;;;19.04;42.3125;945.1603;;;;
2019/04/23 08:42:22;;;;;;;14;7.9;;;;;;;19.03;41.40332;945.1528;;;;
2019/04/23 08:44:58;;;;;;;13.7;7.4;;;;;;;19.03;41.93359;945.1024;;;;
2019/04/23 08:47:18;;;;;;;14;7.8;;;;;;;19.09;41.23242;945.0953;;;;
2019/04/23 08:49:46;;;;;;;12.3;7.5;;;;;;;19.14;41.06055;945.1639;;;;
2019/04/23 08:52:30;;;;;;;15.2;7.6;;;;;;;19.22;41.32617;945.0984;;;;
2019/04/23 08:54:55;;;;;;;13.2;7.9;;;;;;;19.34;41.27832;945.086;;;;
2019/04/23 08:57:20;;;;;;;13;7.4;;;;;;;19.4;40.28125;945.1102;;;;
2019/04/23 08:59:45;;;;;;;13.3;7.5;;;;;;;19.46;41.58496;945.1501;;;;
2019/04/23 09:02:10;;;;;;;13;7.6;;;;;;;19.56;41.4541;945.0898;;;;
2019/04/23 09:04:35;;;;;;;13.2;7.5;;;;;;;19.61;41.04395;945.043;;;;
2019/04/23 09:07:00;;;;;;;16.4;8.1;;;;;;;19.69;41.2998;945.0187;;;;
2019/04/23 09:09:26;;;;;;;12.2;7.8;;;;;;;19.74;40.19336;944.9807;;;;
2019/04/23 09:11:51;;;;;;;15.1;7.8;;;;;;;19.79;41.47461;944.9842;;;;
2019/04/23 09:14:17;;;;;;;13.6;8.5;;;;;;;19.85;42.03613;944.99;;;;
2019/04/23 09:16:43;;;;;;;13.3;7.8;;;;;;;19.87;41.38867;944.934;;;;
2019/04/23 09:19:07;;;;;;;14.7;8;;;;;;;19.93;41.32227;944.9375;;;;
2019/04/23 09:21:37;;;;;;;14.9;8;;;;;;;19.99;41.18652;944.9523;;;;
2019/04/23 09:24:02;;;;;;;16.5;7.9;;;;;;;20.05;41.52246;944.9377;;;;
2019/04/23 09:26:28;;;;;;;12.4;7.6;;;;;;;20.06;40.40039;944.8792;;;;
2019/04/23 09:28:53;;;;;;;15.7;8.1;;;;;;;20.08;40.16602;944.9658;;;;
2019/04/23 09:32:20;;;;;;;15.3;8.1;;;;;;;20.15;39.9707;944.8938;;;;
2019/04/23 09:34:28;;;;;;;15.2;7.8;;;;;;;20.19;40.09277;944.8594;;;;
2019/04/23 09:36:22;;;;;;;20;8.3;;;;;;;20.21;40.39063;944.9034;;;;
2019/04/23 09:38:43;;;;;;;14.2;7.2;;;;;;;20.18;41.0498;944.9274;;;;
2019/04/23 09:44:31;;;;;;;16.6;7.9;;;;;;;20.03;41.36719;944.9885;;;;
2019/04/23 09:45:14;;;;;;;14.7;7.2;;;;;;;20.39;41.56641;944.9188;;;;
2019/04/23 09:49:26;;;;;;;15.2;7.5;;;;;;;20.79;39.91016;944.9841;;;;
2019/04/23 09:51:52;;;;;;;14.3;7.8;;;;;;;20.94;40.10254;945.0343;;;;
2019/04/23 09:54:18;;;;;;;12;7.1;;;;;;;21.21;39.24902;945.0375;;;;
2019/04/23 09:56:48;;;;;;;15.2;7.3;;;;;;;21.18;39.13965;945.035;;;;
2019/04/23 09:59:12;;;;;;;13.6;7.5;;;;;;;21.18;39.58984;945.0129;;;;
2019/04/23 10:01:37;;;;;;;12.5;7.2;;;;;;;21.39;40.25;944.9997;;;;
2019/04/23 10:04:02;;;;;;;10.9;7.8;;;;;;;21.54;38.59082;944.9416;;;;
2019/04/23 10:06:27;;;;;;;13.6;7.1;;;;;;;21.65;38.59961;944.9384;;;;
2019/04/23 10:08:52;;;;;;;14.4;6.9;;;;;;;21.78;37.80469;944.8699;;;;
2019/04/23 10:11:17;;;;;;;14.1;6.5;;;;;;;21.98;38.5332;944.928;;;;
2019/04/23 10:13:42;;;;;;;15.8;7.1;;;;;;;22.17;36.37598;945.0014;;;;
2019/04/23 10:16:07;;;;;;;12.8;6.9;;;;;;;22.23;37.31934;945.02;;;;
2019/04/23 10:18:32;;;;;;;14.4;6.7;;;;;;;22.25;37.54688;945.0211;;;;
2019/04/23 10:20:57;;;;;;;12.1;6.1;;;;;;;22.31;36.81543;944.9924;;;;
2019/04/23 10:23:23;;;;;;;9.7;5.9;;;;;;;22.45;35.58984;944.9796;;;;
2019/04/23 10:25:48;;;;;;;14.7;6.5;;;;;;;22.34;36.08105;944.9684;;;;
2019/04/23 10:31:25;;;;;;;11.9;5.5;;;;;;;22.65;36.1416;944.9402;;;;
2019/04/23 10:35:41;;;;;;;15;6.4;;;;;;;22.93;36.79492;944.9519;;;;
2019/04/23 10:38:06;;;;;;;13.3;6;;;;;;;23.25;33.84473;944.907;;;;
2019/04/23 10:40:32;;;;;;;13;6.2;;;;;;;23.55;34.39258;944.9055;;;;
2019/04/23 10:42:57;;;;;;;16.4;6;;;;;;;23.81;33.18359;944.8342;;;;
2019/04/23 10:45:31;;;;;;;12.6;6;;;;;;;24.05;31.96094;944.807;;;;
2019/04/23 10:50:22;;;;;;;15.3;5.8;;;;;;;24.54;31.1123;944.7292;;;;
2019/04/23 10:52:38;;;;;;;8.7;5.5;;;;;;;24.62;31.89355;944.7686;;;;
2019/04/23 10:55:04;;;;;;;11.8;5.7;;;;;;;24.73;31.13672;944.7773;;;;
2019/04/23 10:57:29;;;;;;;12.2;5.6;;;;;;;24.81;31.83594;944.7658;;;;
2019/04/23 10:59:55;;;;;;;12.7;5.3;;;;;;;24.85;31.01465;944.7136;;;;
2019/04/23 11:02:20;;;;;;;9.2;5.7;;;;;;;24.87;31.09961;944.7183;;;;
2019/04/23 11:04:45;;;;;;;11.3;5.6;;;;;;;24.58;30.625;944.6467;;;;
2019/04/23 11:07:10;;;;;;;8.4;5.1;;;;;;;24.65;31.16699;944.5717;;;;
2019/04/23 11:09:37;;;;;;;14.1;5.7;;;;;;;24.67;30.81055;944.5317;;;;
2019/04/23 11:14:40;;;;;;;15.2;6.8;;;;;;;24.34;30.91895;944.507;;;;
2019/04/23 11:16:52;;;;;;;14.4;5.9;;;;;;;24.36;31.0752;944.4931;;;;
2019/04/23 11:19:17;;;;;;;12.7;6;;;;;;;24.34;31.03809;944.5162;;;;
2019/04/23 11:21:42;;;;;;;14.8;5.9;;;;;;;24.31;31.32324;944.5208;;;;
2019/04/23 11:24:08;;;;;;;12.9;5.5;;;;;;;24.35;31.08691;944.5314;;;;
2019/04/23 11:26:33;;;;;;;18.5;6.3;;;;;;;24.36;30.18066;944.5938;;;;
2019/04/23 11:28:59;;;;;;;13.3;5.6;;;;;;;24.42;30.25586;944.6042;;;;
2019/04/23 11:31:25;;;;;;;9.6;5.6;;;;;;;24.49;30.35547;944.5904;;;;
2019/04/23 11:33:51;;;;;;;13.7;5.5;;;;;;;24.36;31.15918;944.5546;;;;
2019/04/23 11:36:18;;;;;;;11;5.2;;;;;;;24.37;31.38672;944.5362;;;;
2019/04/23 11:38:42;;;;;;;12.3;5.5;;;;;;;24.36;31.02832;944.5508;;;;
2019/04/23 11:41:07;;;;;;;10.4;5.5;;;;;;;24.31;31.23926;944.5485;;;;
2019/04/23 11:43:33;;;;;;;10.7;5.2;;;;;;;24.25;31.61719;944.5589;;;;
2019/04/23 11:45:58;;;;;;;12.2;6;;;;;;;24.23;32.02148;944.6121;;;;
2019/04/23 11:48:24;;;;;;;10.8;5;;;;;;;24.23;32.80859;944.6344;;;;
2019/04/23 11:50:49;;;;;;;9.1;5.4;;;;;;;24.23;31.5791;944.7241;;;;
2019/04/23 11:53:14;;;;;;;13;5.3;;;;;;;24.18;32.18457;944.673;;;;
2019/04/23 11:55:40;;;;;;;13;5.1;;;;;;;24.19;31.76855;944.6792;;;;
2019/04/23 11:58:05;;;;;;;10.8;5.2;;;;;;;24.11;32.1084;944.722;;;;
2019/04/23 12:00:50;;;;;;;13.3;5.1;;;;;;;24.16;31.63477;944.6944;;;;
2019/04/23 12:03:08;;;;;;;9.8;5.1;;;;;;;24.16;32.87598;944.633;;;;
2019/04/23 12:08:28;;;;;;;10.3;5.6;;;;;;;24.16;32.32617;944.6605;;;;
2019/04/23 12:10:32;;;;;;;14.4;6.3;;;;;;;24.14;32.7666;944.6297;;;;
2019/04/23 12:12:48;;;;;;;13.1;5.8;;;;;;;24.08;33.03711;944.6534;;;;
2019/04/23 12:15:24;;;;;;;13;5.9;;;;;;;24.06;32.76074;944.6894;;;;
2019/04/23 12:17:47;;;;;;;14.1;5.7;;;;;;;24.07;33.2627;944.6641;;;;
2019/04/23 12:20:12;;;;;;;15;6.3;;;;;;;24.06;33.44043;944.6894;;;;
2019/04/23 12:22:37;;;;;;;11.3;6.5;;;;;;;24.05;34.4541;944.717;;;;
2019/04/23 12:25:02;;;;;;;13.6;6.9;;;;;;;24.05;33.11816;944.7431;;;;
2019/04/23 12:27:27;;;;;;;31.5;23.2;;;;;;;24.04;33.70215;944.75;;;;
2019/04/23 12:29:52;;;;;;;13.3;8.5;;;;;;;23.98;33.53027;944.7737;;;;
2019/04/23 12:32:21;;;;;;;9.2;6.4;;;;;;;24.04;33.10547;944.7538;;;;
2019/04/23 12:34:43;;;;;;;12.4;6.6;;;;;;;24.15;34.1875;944.8267;;;;
2019/04/23 12:37:14;;;;;;;11.8;6.1;;;;;;;24.12;33.25391;944.808;;;;
2019/04/23 12:39:33;;;;;;;12.3;6.4;;;;;;;24.17;33.59277;944.863;;;;
2019/04/23 12:41:58;;;;;;;12.3;5.8;;;;;;;24.08;33.63379;944.7803;;;;
2019/04/23 12:44:23;;;;;;;9.4;5.4;;;;;;;24.07;33.07129;944.791;;;;
2019/04/23 12:46:48;;;;;;;13.5;5.7;;;;;;;24.1;33.27637;944.712;;;;
2019/04/23 12:49:14;;;;;;;13.7;5.6;;;;;;;24.12;33.39746;944.7111;;;;
2019/04/23 12:51:39;;;;;;;8.7;5.2;;;;;;;24.16;32.92285;944.6867;;;;
2019/04/23 12:54:04;;;;;;;18.6;5.3;;;;;;;24.22;33.67969;944.7352;;;;
2019/04/23 12:56:29;;;;;;;10.8;5.3;;;;;;;24.33;32.95996;944.6486;;;;
2019/04/23 12:58:55;;;;;;;14.4;5.3;;;;;;;24.39;32.5459;944.6325;;;;
2019/04/23 13:01:22;;;;;;;13.2;5;;;;;;;24.49;32.53027;944.6242;;;;
2019/04/23 13:03:47;;;;;;;10.9;4.7;;;;;;;24.58;32.09473;944.6113;;;;
2019/04/23 13:06:17;;;;;;;12.9;4.6;;;;;;;24.72;32.09277;944.6047;;;;
2019/04/23 13:08:42;;;;;;;13.5;4.8;;;;;;;24.79;32.3125;944.5519;;;;
2019/04/23 13:11:07;;;;;;;15.2;9.5;;;;;;;24.81;31.57227;944.5825;;;;
2019/04/23 13:13:32;;;;;;;20.1;13;;;;;;;24.92;32.21484;944.5783;;;;
2019/04/23 13:15:57;;;;;;;15.8;5.6;;;;;;;25.04;31.73242;944.6116;;;;
2019/04/23 13:18:23;;;;;;;10.7;4.9;;;;;;;25.19;32.46094;944.5284;;;;
2019/04/23 13:20:48;;;;;;;14.5;5.1;;;;;;;25.48;32.08691;944.5168;;;;
2019/04/23 13:23:15;;;;;;;11;5.1;;;;;;;25.59;31.30469;944.5212;;;;
2019/04/23 13:25:41;;;;;;;11.8;4.8;;;;;;;25.76;31.28125;944.4517;;;;
2019/04/23 13:28:03;;;;;;;14.4;5.1;;;;;;;25.89;31.57813;944.442;;;;
2019/04/23 13:30:33;;;;;;;10.9;4.8;;;;;;;26.03;30.60449;944.4494;;;;
2019/04/23 13:33:13;;;;;;;10.7;5;;;;;;;26.11;30.11816;944.3402;;;;
2019/04/23 13:35:38;;;;;;;10.9;5.2;;;;;;;26.17;31.58496;944.3764;;;;
2019/04/23 13:38:06;;;;;;;9.8;4.9;;;;;;;26.42;30.11523;944.3903;;;;
2019/04/23 13:40:33;;;;;;;9.5;4.6;;;;;;;26.64;29.68555;944.3574;;;;
2019/04/23 13:42:58;;;;;;;13.2;4.3;;;;;;;26.94;30.7627;944.3909;;;;
2019/04/23 13:45:23;;;;;;;8.1;4.2;;;;;;;27.23;29.5332;944.3695;;;;
2019/04/23 13:47:48;;;;;;;10.2;4.5;;;;;;;27.26;29.28223;944.3722;;;;
2019/04/23 13:50:14;;;;;;;10;4.4;;;;;;;27.24;28.75293;944.3923;;;;
2019/04/23 13:52:40;;;;;;;10.5;4.1;;;;;;;27.21;28.12598;944.3465;;;;
2019/04/23 13:55:05;;;;;;;10.9;4;;;;;;;27.24;29.44922;944.3359;;;;
2019/04/23 13:57:30;;;;;;;11.9;4.1;;;;;;;27.53;28.33789;944.2709;;;;
2019/04/23 13:59:56;;;;;;;10;4.2;;;;;;;27.53;26.99219;944.301;;;;
2019/04/23 14:02:21;;;;;;;10;4.2;;;;;;;27.47;26.91602;944.2783;;;;
2019/04/23 14:05:03;;;;;;;12.5;4.1;;;;;;;27.3;27.33887;944.1563;;;;
2019/04/23 14:07:13;;;;;;;11;4.1;;;;;;;27.05;27.20313;944.1962;;;;
2019/04/23 14:09:38;;;;;;;9.3;3.8;;;;;;;26.84;27.29883;944.1829;;;;
2019/04/23 14:12:03;;;;;;;8.6;4;;;;;;;26.85;27.85156;944.2639;;;;
2019/04/23 14:14:28;;;;;;;8.9;4.1;;;;;;;26.79;28.41211;944.2333;;;;
2019/04/23 14:16:53;;;;;;;9.6;4.5;;;;;;;26.74;28.7207;944.2485;;;;
2019/04/23 14:19:19;;;;;;;10.5;4.1;;;;;;;26.63;28.72559;944.25;;;;
2019/04/23 14:21:44;;;;;;;9.1;4.4;;;;;;;26.57;29.82617;944.2664;;;;
2019/04/23 14:24:09;;;;;;;10.9;4.6;;;;;;;26.33;29.24609;944.1728;;;;
2019/04/23 14:26:35;;;;;;;12.1;4.9;;;;;;;26.29;29.87891;944.1547;;;;
2019/04/23 14:29:00;;;;;;;13.8;4.7;;;;;;;26.23;29.99512;944.2194;;;;
2019/04/23 14:31:25;;;;;;;10.7;4.5;;;;;;;26.24;29.31152;944.1692;;;;
2019/04/23 14:33:51;;;;;;;13.6;4.9;;;;;;;26.22;30.08984;944.1515;;;;
2019/04/23 14:36:16;;;;;;;10.7;4.6;;;;;;;26.35;29.57129;944.1905;;;;
2019/04/23 14:38:41;;;;;;;8.8;4.4;;;;;;;26.52;29.77441;944.2067;;;;